Time;durP1;ratioP1;P1;durP2;ratioP2;P2;SDS_P1;SDS_P2;PMS_P1;PMS_P2;Temp;Humidity;BMP_temperature;BMP_pressure;BME280_temperature;BME280_humidity;BME280_pressure;Samples;Min_cycle;Max_cycle;Signal;HPM_P1;HPM_P2
2023/06/16 00:01:14;;;;;;;4.50;4.10;;;;;;;16.24;51.16;96698.47;4864145;29;20057;-81
2023/06/16 00:03:43;;;;;;;4.60;4.20;;;;;;;16.17;51.29;96703.00;4864516;29;20095;-82
2023/06/16 00:06:13;;;;;;;6.35;4.38;;;;;;;16.11;51.63;96701.22;4862990;29;20103;-81
2023/06/16 00:08:42;;;;;;;5.57;4.25;;;;;;;16.07;51.49;96700.88;4866276;29;20049;-82
2023/06/16 00:11:10;;;;;;;4.72;4.32;;;;;;;16.02;51.72;96704.09;4880179;29;20139;-82
2023/06/16 00:13:37;;;;;;;5.07;4.00;;;;;;;16.01;51.87;96694.63;4881184;29;20136;-81
2023/06/16 00:16:05;;;;;;;4.65;4.00;;;;;;;16.03;51.75;96711.00;4881925;29;20502;-81
2023/06/16 00:18:35;;;;;;;4.22;3.83;;;;;;;16.04;51.75;96707.34;4882451;29;20425;-84
2023/06/16 00:21:03;;;;;;;6.75;4.13;;;;;;;16.01;51.87;96707.78;4882723;29;20425;-84
2023/06/16 00:23:31;;;;;;;6.68;3.88;;;;;;;15.98;52.16;96702.13;4881434;29;20133;-84
2023/06/16 00:25:58;;;;;;;4.38;3.97;;;;;;;15.97;52.06;96706.59;4882425;29;20057;-84
2023/06/16 00:28:26;;;;;;;5.78;3.90;;;;;;;15.97;52.00;96708.41;4885083;29;20514;-83
2023/06/16 00:30:55;;;;;;;9.30;4.55;;;;;;;15.90;52.16;96700.56;4884496;29;20061;-82
2023/06/16 00:33:22;;;;;;;4.07;3.72;;;;;;;15.85;52.49;96697.75;4882664;29;20121;-78
2023/06/16 00:35:51;;;;;;;4.65;4.25;;;;;;;15.86;52.61;96702.00;4882339;29;20499;-82
2023/06/16 00:38:19;;;;;;;4.85;4.13;;;;;;;15.92;52.27;96702.97;4879951;29;20114;-81
2023/06/16 00:40:47;;;;;;;5.32;4.60;;;;;;;15.96;52.18;96694.47;4880048;29;20108;-85
2023/06/16 00:43:14;;;;;;;5.03;4.18;;;;;;;15.98;52.14;96697.69;4881865;29;20583;-84
2023/06/16 00:45:42;;;;;;;6.35;4.38;;;;;;;15.95;52.19;96692.03;4881065;29;20561;-83
2023/06/16 00:48:10;;;;;;;5.00;4.50;;;;;;;15.88;52.37;96688.66;4863898;29;20133;-84
2023/06/16 00:50:38;;;;;;;4.40;4.00;;;;;;;15.80;52.36;96684.44;4869695;29;20063;-83
2023/06/16 00:53:08;;;;;;;4.22;3.83;;;;;;;15.76;52.79;96689.31;4881843;29;20101;-84
2023/06/16 00:55:36;;;;;;;4.20;3.75;;;;;;;15.74;52.81;96690.53;4880163;29;20105;-84
2023/06/16 00:58:05;;;;;;;5.13;4.20;;;;;;;15.69;52.91;96690.34;4879484;29;20049;-84
2023/06/16 01:00:35;;;;;;;6.07;4.30;;;;;;;15.65;53.21;96690.78;4879587;29;20222;-85
2023/06/16 01:03:04;;;;;;;5.15;4.00;;;;;;;15.63;52.83;96686.72;4879781;29;20057;-84
2023/06/16 01:05:33;;;;;;;5.20;4.03;;;;;;;15.60;53.23;96685.34;4878998;29;20057;-84
2023/06/16 01:08:12;;;;;;;5.38;4.20;;;;;;;15.56;53.35;96694.66;4879730;29;20053;-85
2023/06/16 01:10:49;;;;;;;5.25;3.67;;;;;;;15.50;53.49;96695.50;4880265;29;20059;-84
2023/06/16 01:13:22;;;;;;;5.45;4.07;;;;;;;15.44;53.64;96689.28;4880590;29;20132;-84
2023/06/16 01:15:52;;;;;;;4.50;4.10;;;;;;;15.42;53.55;96693.13;4880365;29;20483;-84
2023/06/16 01:18:23;;;;;;;5.32;4.30;;;;;;;15.38;53.87;96689.31;4880801;29;20061;-84
2023/06/16 01:20:54;;;;;;;4.93;4.43;;;;;;;15.42;53.82;96690.50;4880860;29;20069;-84
2023/06/16 01:23:35;;;;;;;5.23;4.20;;;;;;;15.47;53.79;96689.88;4880624;29;20053;-84
2023/06/16 01:26:09;;;;;;;4.22;3.83;;;;;;;15.53;53.72;96686.41;4880489;29;20060;-84
2023/06/16 01:28:43;;;;;;;4.88;4.07;;;;;;;15.60;53.55;96685.34;4880801;29;20060;-84
2023/06/16 01:31:15;;;;;;;5.47;4.20;;;;;;;15.58;53.34;96686.56;4880668;29;20528;-84
2023/06/16 01:33:45;;;;;;;5.05;4.10;;;;;;;15.55;53.28;96690.44;4880102;29;20053;-84
2023/06/16 01:36:14;;;;;;;4.45;4.05;;;;;;;15.50;53.15;96686.81;4880309;29;20053;-82
2023/06/16 01:38:44;;;;;;;4.93;4.00;;;;;;;15.46;53.61;96689.06;4880585;29;20057;-84
2023/06/16 01:41:13;;;;;;;7.38;4.32;;;;;;;15.41;53.51;96689.72;4879943;29;20084;-85
2023/06/16 01:43:42;;;;;;;4.70;4.20;;;;;;;15.37;53.68;96685.88;4883158;29;20074;-84
2023/06/16 01:46:10;;;;;;;4.07;3.78;;;;;;;15.32;53.86;96688.31;4900887;29;20053;-86
2023/06/16 01:48:38;;;;;;;4.55;4.15;;;;;;;15.29;53.87;96677.44;4900587;29;20055;-84
2023/06/16 01:51:06;;;;;;;6.13;4.10;;;;;;;15.22;54.00;96680.88;4902024;29;20078;-85
2023/06/16 01:53:33;;;;;;;5.03;4.43;;;;;;;15.19;54.39;96680.50;4902122;29;20037;-85
2023/06/16 01:56:01;;;;;;;5.13;4.70;;;;;;;15.15;54.35;96682.75;4902038;29;20037;-84
2023/06/16 01:58:30;;;;;;;5.13;4.53;;;;;;;15.12;54.60;96672.63;4894739;29;20529;-85
2023/06/16 02:01:04;;;;;;;6.63;4.50;;;;;;;15.11;54.38;96676.28;4880558;29;20053;-84
2023/06/16 02:03:36;;;;;;;6.10;4.07;;;;;;;15.18;54.95;96676.25;4881818;29;20056;-84
2023/06/16 02:06:08;;;;;;;;;;;;;;;15.28;54.16;96673.19;4880380;29;20061;-84
2023/06/16 02:08:36;;;;;;;4.70;4.30;;;;;;;15.40;53.89;96668.88;4881313;29;19957;-84
2023/06/16 02:11:05;;;;;;;7.32;4.88;;;;;;;15.48;53.92;96666.00;4880614;29;20135;-84
2023/06/16 02:13:34;;;;;;;5.32;4.20;;;;;;;15.58;53.99;96666.34;4881529;29;20081;-84
2023/06/16 02:16:01;;;;;;;5.80;4.78;;;;;;;15.67;53.47;96669.53;4887798;29;20053;-83
2023/06/16 02:18:32;;;;;;;5.18;4.32;;;;;;;15.75;53.32;96669.31;4892919;29;20052;-83
2023/06/16 02:21:00;;;;;;;5.60;4.13;;;;;;;15.85;53.15;96664.38;4883998;29;20057;-85
2023/06/16 02:23:27;;;;;;;5.13;4.38;;;;;;;15.93;52.68;96660.66;4886016;29;20064;-84
2023/06/16 02:25:55;;;;;;;6.50;4.90;;;;;;;15.90;52.88;96666.38;4885954;29;20049;-85
2023/06/16 02:28:23;;;;;;;4.45;4.00;;;;;;;15.92;52.82;96664.34;4885906;29;20088;-84
2023/06/16 02:30:52;;;;;;;5.20;4.43;;;;;;;15.94;53.07;96669.38;4885518;29;20088;-84
2023/06/16 02:33:20;;;;;;;5.97;5.38;;;;;;;15.86;52.83;96671.25;4884967;29;20085;-84
2023/06/16 02:35:47;;;;;;;6.28;4.38;;;;;;;15.83;53.22;96674.31;4884752;29;20210;-85
2023/06/16 02:38:15;;;;;;;5.47;4.85;;;;;;;15.81;53.16;96673.72;4884602;29;20057;-84
2023/06/16 02:40:43;;;;;;;5.75;4.45;;;;;;;15.83;53.04;96674.31;4884738;29;20061;-85
2023/06/16 02:43:10;;;;;;;4.97;4.43;;;;;;;15.93;52.84;96668.56;4884616;29;20421;-84
2023/06/16 02:45:39;;;;;;;6.88;5.05;;;;;;;15.97;52.67;96672.38;4884091;29;20049;-85
2023/06/16 02:48:08;;;;;;;5.28;4.60;;;;;;;15.96;52.93;96676.06;4884063;29;20053;-84
2023/06/16 02:50:36;;;;;;;4.65;4.25;;;;;;;15.95;52.76;96673.63;4884080;29;20526;-84
2023/06/16 02:53:05;;;;;;;4.13;3.80;;;;;;;15.93;52.92;96671.19;4884018;29;20077;-84
2023/06/16 02:55:32;;;;;;;5.28;4.78;;;;;;;15.94;52.79;96680.72;4883709;29;20100;-81
2023/06/16 02:58:00;;;;;;;4.55;4.15;;;;;;;15.92;52.82;96677.50;4884599;29;20132;-81
2023/06/16 03:00:28;;;;;;;5.40;4.40;;;;;;;15.94;52.97;96680.72;4884346;29;20069;-84
2023/06/16 03:02:56;;;;;;;5.53;4.43;;;;;;;15.95;52.71;96682.31;4883748;29;20053;-84
2023/06/16 03:05:27;;;;;;;5.97;4.10;;;;;;;16.05;52.71;96680.03;4883632;29;20088;-84
2023/06/16 03:07:55;;;;;;;5.75;4.97;;;;;;;16.11;52.37;96680.16;4883423;29;20145;-84
2023/06/16 03:10:23;;;;;;;5.40;4.72;;;;;;;16.11;52.38;96680.16;4884424;29;20091;-81
2023/06/16 03:12:50;;;;;;;5.00;4.50;;;;;;;16.06;52.47;96684.25;4883369;29;20049;-81
2023/06/16 03:15:19;;;;;;;5.63;4.97;;;;;;;15.97;52.71;96684.75;4882955;29;20045;-82
2023/06/16 03:17:47;;;;;;;7.40;4.63;;;;;;;15.89;53.08;96691.06;4882530;29;20136;-84
2023/06/16 03:20:15;;;;;;;7.60;4.70;;;;;;;15.89;53.06;96683.16;4883443;29;20052;-84
2023/06/16 03:22:44;;;;;;;5.47;4.90;;;;;;;15.91;52.88;96696.91;4884639;29;20071;-84
2023/06/16 03:25:12;;;;;;;6.00;4.82;;;;;;;15.84;52.91;96696.16;4884175;29;20445;-84
2023/06/16 03:27:40;;;;;;;6.70;4.72;;;;;;;15.74;53.16;96699.25;4883204;29;20505;-84
2023/06/16 03:30:08;;;;;;;5.78;4.72;;;;;;;15.68;53.52;96699.25;4882908;29;20065;-84
2023/06/16 03:32:37;;;;;;;5.28;4.78;;;;;;;15.61;53.70;96701.91;4882099;29;20121;-84
2023/06/16 03:35:06;;;;;;;6.22;5.18;;;;;;;15.49;54.08;96703.63;4882536;29;20144;-85
2023/06/16 03:37:34;;;;;;;5.30;4.80;;;;;;;15.43;54.51;96710.50;4882324;29;20057;-84
2023/06/16 03:40:05;;;;;;;5.93;5.32;;;;;;;15.38;54.56;96710.34;4881861;29;20525;-84
2023/06/16 03:42:33;;;;;;;6.10;4.82;;;;;;;15.30;54.72;96710.56;4882068;29;20067;-84
2023/06/16 03:45:01;;;;;;;5.47;4.93;;;;;;;15.28;54.91;96715.22;4882117;29;20045;-84
2023/06/16 03:47:29;;;;;;;6.03;4.07;;;;;;;15.32;54.80;96711.16;4881297;29;20136;-85
2023/06/16 03:49:56;;;;;;;6.47;4.57;;;;;;;15.45;54.53;96719.78;4881926;29;20057;-85
2023/06/16 03:52:24;;;;;;;5.07;4.13;;;;;;;15.56;54.02;96715.69;4881267;29;20527;-84
2023/06/16 03:54:52;;;;;;;6.65;4.50;;;;;;;15.70;53.96;96720.88;4881758;29;20497;-84
2023/06/16 03:57:21;;;;;;;4.90;4.20;;;;;;;15.79;53.79;96719.66;4881207;29;20049;-84
2023/06/16 03:59:48;;;;;;;6.88;4.40;;;;;;;15.82;53.68;96712.13;4881582;29;20057;-84
2023/06/16 04:02:16;;;;;;;4.88;4.20;;;;;;;15.93;53.39;96715.13;4881896;29;20566;-84
2023/06/16 04:04:45;;;;;;;7.88;5.05;;;;;;;16.00;52.90;96723.75;4881991;29;20533;-84
2023/06/16 04:07:12;;;;;;;5.82;5.13;;;;;;;15.89;53.42;96721.81;4881581;29;20060;-83
2023/06/16 04:09:40;;;;;;;5.68;4.80;;;;;;;15.75;53.42;96721.91;4881785;29;20480;-84
2023/06/16 04:25:40;;;;;;;6.82;5.45;;;;;;;15.24;55.41;96728.78;4991919;23;20051;-87
2023/06/16 04:28:14;;;;;;;7.72;5.72;;;;;;;15.17;56.04;96720.09;4943784;29;20053;-89
2023/06/16 04:30:42;;;;;;;6.25;5.65;;;;;;;15.11;56.57;96717.50;4950102;29;20055;-90
2023/06/16 04:33:11;;;;;;;7.28;5.80;;;;;;;15.05;56.60;96727.03;4949861;29;20052;-90
2023/06/16 04:35:44;;;;;;;5.93;5.32;;;;;;;15.05;56.72;96719.16;4938916;29;20047;-89
2023/06/16 04:38:14;;;;;;;5.68;5.05;;;;;;;15.18;56.56;96713.84;4939126;29;20082;-90
2023/06/16 04:40:47;;;;;;;7.82;6.15;;;;;;;15.29;56.24;96714.22;4938325;29;20059;-90
2023/06/16 04:43:18;;;;;;;6.68;6.00;;;;;;;15.30;56.84;96715.81;4943702;28;20043;-88
2023/06/16 04:45:46;;;;;;;5.43;4.93;;;;;;;15.34;56.55;96711.75;4949302;29;20063;-89
2023/06/16 04:48:17;;;;;;;6.38;5.05;;;;;;;15.43;56.42;96710.50;4938765;29;20048;-88
2023/06/16 04:50:48;;;;;;;6.43;5.82;;;;;;;15.48;56.30;96710.69;4938774;29;20052;-90
2023/06/16 04:53:17;;;;;;;6.55;4.72;;;;;;;15.51;56.17;96702.38;4949547;29;20047;-89
2023/06/16 04:55:49;;;;;;;8.82;5.80;;;;;;;15.62;56.14;96698.28;4961147;29;20058;-89
2023/06/16 04:58:17;;;;;;;13.88;6.55;;;;;;;15.75;55.99;96702.69;4921863;29;20056;-88
2023/06/16 05:00:47;;;;;;;11.65;7.03;;;;;;;15.86;55.97;96699.38;4936635;29;20444;-90
2023/06/16 05:03:17;;;;;;;7.45;5.95;;;;;;;16.00;55.79;96700.88;4940847;29;20055;-85
2023/06/16 05:27:09;;;;;;;5.15;4.57;;;;;;;16.71;54.38;96696.25;5165311;23;20059;-87
2023/06/16 05:30:00;;;;;;;7.10;4.80;;;;;;;16.79;53.99;96697.78;4968561;28;20052;-89
2023/06/16 05:32:28;;;;;;;17.98;6.57;;;;;;;16.83;54.00;96701.63;4978184;28;20050;-90
2023/06/16 05:35:00;;;;;;;6.05;4.72;;;;;;;16.92;53.84;96702.13;4963479;28;20071;-88
2023/06/16 05:37:31;;;;;;;7.78;5.20;;;;;;;16.99;53.55;96703.69;4953145;29;20153;-85
2023/06/16 05:40:01;;;;;;;6.38;4.82;;;;;;;17.07;53.66;96694.66;4945659;29;20047;-87
2023/06/16 05:42:30;;;;;;;7.18;5.03;;;;;;;17.14;53.41;96698.03;4932489;29;20060;-85
2023/06/16 05:44:58;;;;;;;6.65;5.30;;;;;;;17.19;53.15;96703.47;4936961;29;20067;-88
2023/06/16 05:47:26;;;;;;;5.90;5.30;;;;;;;17.24;52.90;96700.97;4942993;29;20079;-90
2023/06/16 05:49:56;;;;;;;7.68;4.93;;;;;;;17.32;52.69;96701.66;4951494;29;20103;-87
2023/06/16 05:52:24;;;;;;;7.65;4.82;;;;;;;17.37;52.56;96704.47;4950377;29;20100;-85
2023/06/16 05:54:55;;;;;;;5.18;4.13;;;;;;;17.45;52.63;96702.34;4950534;29;20056;-89
2023/06/16 05:57:25;;;;;;;5.00;4.55;;;;;;;17.56;52.85;96707.84;4952445;29;20043;-88
2023/06/16 05:59:55;;;;;;;6.72;4.80;;;;;;;17.66;51.99;96708.94;4975779;29;20554;-90
2023/06/16 06:02:29;;;;;;;5.68;4.38;;;;;;;17.77;51.50;96706.56;4970167;29;20066;-90
2023/06/16 06:05:03;;;;;;;8.43;4.57;;;;;;;17.86;50.64;96713.16;4968300;29;20135;-89
2023/06/16 06:07:37;;;;;;;4.97;3.77;;;;;;;17.92;50.58;96712.25;4974903;28;20051;-88
2023/06/16 06:10:07;;;;;;;5.43;4.93;;;;;;;17.99;50.24;96712.16;4968707;28;20298;-89
2023/06/16 06:12:36;;;;;;;4.82;4.43;;;;;;;18.02;50.07;96717.81;4961331;29;20047;-87
2023/06/16 06:15:06;;;;;;;6.43;4.82;;;;;;;18.07;50.22;96720.56;4963542;29;20106;-89
2023/06/16 06:17:34;;;;;;;6.50;4.68;;;;;;;18.10;50.01;96714.84;4962581;29;20072;-88
2023/06/16 06:20:02;;;;;;;5.88;4.95;;;;;;;18.17;50.04;96720.03;4951643;29;20071;-88
2023/06/16 06:22:32;;;;;;;6.90;4.55;;;;;;;18.24;49.92;96727.84;4947321;29;20078;-89
2023/06/16 06:25:04;;;;;;;6.60;4.97;;;;;;;18.30;49.73;96727.75;4946439;29;20323;-89
2023/06/16 06:27:32;;;;;;;6.03;4.72;;;;;;;18.38;49.56;96729.22;4945543;29;20111;-90
2023/06/16 06:30:02;;;;;;;5.25;4.68;;;;;;;18.47;49.57;96725.22;4959924;29;20055;-89
2023/06/16 06:32:31;;;;;;;9.05;5.07;;;;;;;18.57;49.29;96737.88;4935509;29;20423;-90
2023/06/16 06:35:00;;;;;;;6.03;4.60;;;;;;;18.68;49.33;96730.97;4962635;29;20059;-90
2023/06/16 06:37:31;;;;;;;6.30;4.32;;;;;;;18.78;49.61;96733.06;4965627;29;20051;-90
2023/06/16 06:40:01;;;;;;;7.72;4.40;;;;;;;18.85;49.43;96742.50;4965035;29;20066;-90
2023/06/16 06:42:30;;;;;;;6.82;4.90;;;;;;;18.92;49.10;96737.09;4965036;29;20059;-89
2023/06/16 06:44:58;;;;;;;4.70;4.22;;;;;;;18.97;49.01;96744.31;4951074;29;20071;-89
2023/06/16 06:47:26;;;;;;;7.38;4.80;;;;;;;19.02;48.75;96739.13;4956759;29;20051;-88
2023/06/16 06:49:55;;;;;;;8.20;4.63;;;;;;;19.05;48.41;96747.41;4951448;29;20056;-89
2023/06/16 06:52:24;;;;;;;8.32;5.07;;;;;;;19.11;48.65;96741.22;4947440;29;20464;-87
2023/06/16 06:54:52;;;;;;;6.35;4.85;;;;;;;19.16;48.12;96748.44;4945564;29;20127;-88
2023/06/16 06:57:19;;;;;;;5.38;4.53;;;;;;;19.22;48.30;96749.34;4945357;29;20576;-86
2023/06/16 06:59:48;;;;;;;5.53;4.32;;;;;;;19.27;47.85;96747.59;4953142;29;20052;-90
2023/06/16 07:02:21;;;;;;;5.60;4.63;;;;;;;19.35;47.70;96755.19;4948535;29;20052;-90
2023/06/16 07:04:49;;;;;;;8.88;5.07;;;;;;;19.42;46.92;96757.69;4949339;29;20086;-87
2023/06/16 07:07:23;;;;;;;5.10;4.60;;;;;;;19.50;47.55;96764.44;4963355;28;20051;-90
2023/06/16 07:09:55;;;;;;;5.88;4.28;;;;;;;19.60;47.28;96764.66;4958864;29;20051;-90
2023/06/16 07:12:26;;;;;;;6.97;4.53;;;;;;;19.70;47.03;96759.59;4958044;29;20059;-85
2023/06/16 07:14:55;;;;;;;9.07;4.57;;;;;;;19.79;46.20;96757.38;4962268;29;20057;-90
2023/06/16 07:17:23;;;;;;;5.53;4.30;;;;;;;19.88;45.95;96760.47;4964732;29;20043;-84
2023/06/16 07:19:51;;;;;;;5.28;4.30;;;;;;;19.94;45.53;96764.78;4950962;29;20054;-88
2023/06/16 07:22:21;;;;;;;5.72;3.90;;;;;;;19.99;44.53;96759.59;4947330;29;20571;-89
2023/06/16 07:24:52;;;;;;;6.18;3.78;;;;;;;20.06;43.79;96762.09;4948890;29;20059;-87
2023/06/16 07:27:20;;;;;;;5.85;4.32;;;;;;;20.16;44.25;96768.38;4954272;29;20423;-88
2023/06/16 07:29:48;;;;;;;5.30;3.97;;;;;;;20.27;44.20;96768.53;4955562;29;20039;-90
2023/06/16 07:32:20;;;;;;;5.53;4.22;;;;;;;20.36;43.71;96775.06;4954929;28;20047;-89
2023/06/16 07:34:52;;;;;;;7.63;3.92;;;;;;;20.44;43.26;96768.56;4966965;28;20328;-90
2023/06/16 07:37:31;;;;;;;3.78;3.38;;;;;;;20.55;42.52;96773.78;4954738;28;20047;-88
2023/06/16 07:40:06;;;;;;;6.85;3.50;;;;;;;20.63;41.62;96771.81;4967041;29;20052;-88
2023/06/16 07:42:40;;;;;;;4.78;3.50;;;;;;;20.70;41.22;96769.78;4958948;29;20059;-88
2023/06/16 07:48:11;;;;;;;4.40;3.58;;;;;;;20.87;41.01;96761.81;4979245;28;20055;-89
2023/06/16 07:50:56;;;;;;;4.22;3.75;;;;;;;20.97;40.92;96768.06;4967719;28;20091;-89
2023/06/16 07:53:26;;;;;;;3.87;3.47;;;;;;;21.07;40.56;96761.31;4965519;28;20055;-88
2023/06/16 07:55:59;;;;;;;6.40;3.55;;;;;;;21.18;40.57;96765.69;4969826;28;20050;-88
2023/06/16 07:58:27;;;;;;;4.45;3.65;;;;;;;21.27;39.49;96756.25;4978537;28;20065;-87
2023/06/16 08:00:57;;;;;;;6.53;4.00;;;;;;;21.34;40.18;96759.56;4978872;28;20047;-88
2023/06/16 08:03:35;;;;;;;5.15;3.70;;;;;;;21.44;39.87;96764.19;4976361;28;20165;-89
2023/06/16 08:06:05;;;;;;;5.55;3.80;;;;;;;21.52;38.97;96755.00;4963369;28;20623;-89
2023/06/16 08:08:36;;;;;;;5.03;3.40;;;;;;;21.61;38.61;96761.50;4966269;28;20065;-88
2023/06/16 08:11:12;;;;;;;5.20;3.50;;;;;;;21.72;38.62;96752.59;4969855;28;20051;-85
2023/06/16 08:13:40;;;;;;;9.57;3.65;;;;;;;21.81;38.07;96748.41;4951367;29;20063;-89
2023/06/16 08:16:09;;;;;;;5.18;3.75;;;;;;;21.90;38.28;96753.28;4960915;28;20062;-89
2023/06/16 08:18:40;;;;;;;6.57;3.10;;;;;;;21.99;37.06;96754.44;4977546;28;20039;-89
2023/06/16 08:21:12;;;;;;;4.30;3.72;;;;;;;22.03;35.07;96750.22;4966366;28;20060;-90
2023/06/16 08:23:43;;;;;;;3.83;3.35;;;;;;;22.12;35.12;96759.34;4974887;28;20111;-89
2023/06/16 08:26:24;;;;;;;4.13;2.88;;;;;;;22.18;35.23;96746.94;4975863;28;20039;-90
2023/06/16 08:29:12;;;;;;;;;;;;;;;;;;;;;
2023/06/16 08:32:43;;;;;;;;;;;;;;;22.34;35.37;96745.22;4976493;28;20289;-90
2023/06/16 08:35:19;;;;;;;4.82;2.88;;;;;;;22.46;33.72;96751.19;4967955;28;19974;-90
2023/06/16 08:38:04;;;;;;;3.40;3.08;;;;;;;22.53;32.65;96751.75;4976739;28;20078;-88
2023/06/16 08:43:38;;;;;;;7.65;3.42;;;;;;;22.69;32.51;96741.22;4974373;28;20035;-90
2023/06/16 08:46:09;;;;;;;5.35;3.33;;;;;;;22.79;33.08;96744.75;4965637;28;20055;-89
2023/06/16 08:48:50;;;;;;;3.80;2.83;;;;;;;22.88;31.04;96741.63;4950113;29;20052;-90
2023/06/16 08:51:25;;;;;;;4.10;3.00;;;;;;;22.95;30.58;96726.25;4960655;28;20079;-90
2023/06/16 08:54:24;;;;;;;6.40;3.33;;;;;;;23.04;30.07;96738.81;4965979;28;20067;-90
2023/06/16 08:57:12;;;;;;;4.25;3.28;;;;;;;23.13;29.70;96741.00;4957740;28;20062;-88
2023/06/16 08:59:50;;;;;;;5.13;3.20;;;;;;;23.22;29.67;96726.94;4959666;28;20059;-92
2023/06/16 09:02:41;;;;;;;6.43;3.10;;;;;;;23.33;29.56;96734.97;4967954;28;20127;-89
2023/06/16 09:05:30;;;;;;;6.38;3.75;;;;;;;23.44;28.98;96732.09;4966579;28;20079;-90
2023/06/16 09:08:01;;;;;;;6.10;3.28;;;;;;;23.56;29.19;96728.41;4978237;28;20051;-91
2023/06/16 09:10:34;;;;;;;5.95;3.28;;;;;;;23.69;29.51;96727.91;4975888;28;20118;-88
2023/06/16 09:13:08;;;;;;;;;;;;;;;23.85;29.01;96732.25;4978006;28;20035;-89
2023/06/16 09:15:40;;;;;;;7.50;3.20;;;;;;;23.88;28.36;96722.09;4967385;28;19907;-91
2023/06/16 09:18:25;;;;;;;6.07;3.42;;;;;;;23.81;27.17;96738.34;4964210;29;20054;-89
2023/06/16 09:20:53;;;;;;;4.10;3.30;;;;;;;23.80;27.53;96721.56;4946611;29;20052;-87
2023/06/16 09:23:28;;;;;;;4.45;3.45;;;;;;;23.85;27.32;96723.44;4944202;29;20597;-87
2023/06/16 09:25:57;;;;;;;4.07;3.00;;;;;;;23.93;27.79;96727.44;4943930;29;20492;-88
2023/06/16 09:28:37;;;;;;;6.32;3.10;;;;;;;24.03;28.30;96724.78;4945260;29;20075;-86
2023/06/16 09:31:06;;;;;;;4.03;3.58;;;;;;;24.11;27.60;96726.94;4943504;29;20081;-87
2023/06/16 09:33:39;;;;;;;4.72;3.83;;;;;;;24.16;27.79;96729.63;4943952;29;20055;-84
2023/06/16 09:36:08;;;;;;;3.40;3.10;;;;;;;24.29;28.57;96720.28;4943179;29;20056;-84
2023/06/16 09:38:37;;;;;;;7.25;3.55;;;;;;;24.43;28.07;96715.22;4942970;29;20052;-88
2023/06/16 09:41:09;;;;;;;7.63;3.78;;;;;;;24.49;26.95;96730.19;4943287;29;20552;-86
2023/06/16 09:43:39;;;;;;;4.90;3.45;;;;;;;24.42;27.12;96716.28;4942923;29;20532;-88
2023/06/16 09:46:11;;;;;;;3.90;3.00;;;;;;;24.32;27.06;96710.97;4942355;29;20075;-84
2023/06/16 09:48:47;;;;;;;4.57;3.20;;;;;;;24.31;27.50;96709.34;4948693;29;20051;-89
2023/06/16 09:51:19;;;;;;;4.60;3.70;;;;;;;24.36;27.82;96714.66;4960948;29;20059;-88
2023/06/16 09:53:47;;;;;;;;;;;;;;;24.43;28.15;96718.69;4958507;29;20057;-90
2023/06/16 09:56:15;;;;;;;5.00;3.60;;;;;;;24.38;27.66;96709.88;4950434;29;19923;-84
2023/06/16 09:58:45;;;;;;;4.80;4.05;;;;;;;24.25;27.40;96712.03;4951802;29;20052;-90
2023/06/16 10:01:15;;;;;;;3.80;2.97;;;;;;;24.19;28.02;96718.41;4939748;29;20071;-88
2023/06/16 10:03:48;;;;;;;5.75;3.38;;;;;;;24.29;27.74;96716.81;4939714;29;20071;-90
2023/06/16 10:06:19;;;;;;;6.55;3.47;;;;;;;24.41;27.92;96712.03;4946891;29;20044;-87
2023/06/16 10:08:54;;;;;;;5.60;3.30;;;;;;;24.50;28.05;96705.09;4955136;29;20577;-89
2023/06/16 10:11:22;;;;;;;7.65;3.17;;;;;;;24.59;27.95;96705.38;4954441;29;20052;-86
2023/06/16 10:13:54;;;;;;;6.75;3.67;;;;;;;24.63;27.54;96707.22;4966133;23;20483;-76
2023/06/16 10:16:26;;;;;;;6.30;3.40;;;;;;;24.67;27.29;96710.16;4942833;29;20054;-76
2023/06/16 10:18:56;;;;;;;5.13;3.43;;;;;;;24.75;27.75;96698.13;4935800;29;20048;-77
2023/06/16 10:21:24;;;;;;;3.90;3.17;;;;;;;24.88;27.49;96700.22;4937572;29;20293;-76
2023/06/16 10:23:53;;;;;;;5.30;3.22;;;;;;;25.00;26.98;96705.28;4939033;29;20111;-76
2023/06/16 10:26:22;;;;;;;6.60;3.20;;;;;;;25.00;27.00;96694.59;4945771;29;20054;-75
2023/06/16 10:28:50;;;;;;;5.75;3.40;;;;;;;24.97;26.99;96701.28;4947103;29;20507;-79
2023/06/16 10:31:22;;;;;;;4.13;3.03;;;;;;;24.97;26.75;96711.97;4943419;29;20056;-77
2023/06/16 10:33:55;;;;;;;7.93;3.80;;;;;;;25.01;26.82;96702.31;4934281;29;20119;-77
2023/06/16 10:36:24;;;;;;;4.93;3.92;;;;;;;25.07;26.76;96695.91;4935150;29;20047;-75
2023/06/16 10:38:57;;;;;;;6.38;3.65;;;;;;;25.09;26.84;96685.75;4934475;29;20052;-76
2023/06/16 10:41:25;;;;;;;4.25;3.45;;;;;;;25.13;27.11;96693.22;4934658;29;20516;-77
2023/06/16 10:43:53;;;;;;;5.65;3.85;;;;;;;25.19;27.09;96705.47;4937648;29;20103;-77
2023/06/16 10:46:22;;;;;;;6.90;2.78;;;;;;;25.21;27.08;96690.81;4938620;29;20055;-78
2023/06/16 10:49:15;;;;;;;6.30;3.47;;;;;;;25.29;27.50;96689.44;4937710;29;20110;-77
2023/06/16 10:51:45;;;;;;;4.80;3.83;;;;;;;25.39;27.15;96693.97;4937428;29;20086;-76
2023/06/16 10:54:14;;;;;;;4.63;3.08;;;;;;;25.46;26.96;96681.09;4950282;29;20083;-77
2023/06/16 10:57:01;;;;;;;5.80;3.58;;;;;;;25.56;27.14;96685.56;4956307;29;20075;-77
2023/06/16 10:59:54;;;;;;;3.75;3.30;;;;;;;25.65;26.87;96686.59;4943972;29;20052;-77
2023/06/16 11:02:26;;;;;;;5.97;3.67;;;;;;;25.68;26.93;96689.50;4954285;29;20065;-85
2023/06/16 11:05:15;;;;;;;4.20;3.50;;;;;;;25.57;26.99;96692.53;4951576;29;20083;-85
2023/06/16 11:07:52;;;;;;;4.05;3.00;;;;;;;25.41;27.39;96697.94;4969772;29;20114;-85
2023/06/16 11:10:24;;;;;;;4.50;3.80;;;;;;;25.35;26.95;96696.38;4969591;29;20079;-84
2023/06/16 11:13:00;;;;;;;5.75;3.47;;;;;;;25.34;27.34;96689.41;4961859;28;20045;-86
2023/06/16 11:15:46;;;;;;;6.30;3.85;;;;;;;25.41;28.61;96689.94;4948144;28;20049;-87
2023/06/16 11:18:26;;;;;;;4.00;2.97;;;;;;;25.49;27.87;96691.22;4977048;29;20063;-86
2023/06/16 11:21:01;;;;;;;4.07;2.92;;;;;;;25.45;27.29;96690.16;4977119;29;20051;-84
2023/06/16 11:23:29;;;;;;;4.55;3.78;;;;;;;25.45;27.17;96691.00;4950478;29;20047;-76
2023/06/16 11:26:03;;;;;;;8.18;3.78;;;;;;;25.50;26.61;96692.81;4938149;29;20090;-75
2023/06/16 11:28:31;;;;;;;4.63;3.53;;;;;;;25.57;26.74;96690.66;4935976;29;20147;-75
2023/06/16 11:31:01;;;;;;;4.57;3.38;;;;;;;25.61;26.76;96685.56;4949046;29;20047;-75
2023/06/16 11:33:32;;;;;;;4.93;3.65;;;;;;;25.62;26.53;96684.47;4936713;29;20142;-75
2023/06/16 11:36:17;;;;;;;8.65;3.60;;;;;;;25.60;26.07;96676.72;4942950;29;20524;-75
2023/06/16 11:38:45;;;;;;;6.82;3.60;;;;;;;25.60;26.36;96681.28;4917731;29;20063;-76
2023/06/16 11:41:17;;;;;;;5.22;3.30;;;;;;;25.60;26.08;96675.94;4936350;29;20052;-75
2023/06/16 11:43:45;;;;;;;5.40;3.63;;;;;;;25.64;26.86;96666.28;4950855;29;20443;-76
2023/06/16 11:46:14;;;;;;;8.30;3.25;;;;;;;25.72;27.08;96665.72;4943583;29;20110;-75
2023/06/16 11:48:43;;;;;;;5.57;3.38;;;;;;;25.72;26.48;96676.41;4936347;29;20063;-75
2023/06/16 11:51:11;;;;;;;7.05;3.65;;;;;;;25.66;26.78;96680.19;4937159;29;20600;-75
2023/06/16 11:53:39;;;;;;;4.53;3.17;;;;;;;25.57;26.63;96681.84;4936255;29;20076;-75
2023/06/16 11:56:08;;;;;;;3.83;3.42;;;;;;;25.50;27.12;96684.81;4937761;29;20051;-75
2023/06/16 11:58:35;;;;;;;8.35;3.55;;;;;;;25.50;26.91;96682.16;4936359;29;20060;-75
2023/06/16 12:01:04;;;;;;;5.80;3.17;;;;;;;25.51;26.69;96682.94;4936554;29;20082;-75
2023/06/16 12:03:35;;;;;;;5.68;3.42;;;;;;;25.51;26.86;96682.94;4935562;29;20058;-75
2023/06/16 12:06:14;;;;;;;5.40;3.85;;;;;;;25.47;26.91;96691.50;4945688;29;20047;-75
2023/06/16 12:08:43;;;;;;;3.67;3.25;;;;;;;25.43;26.92;96678.97;4936552;29;20087;-76
2023/06/16 12:11:13;;;;;;;5.38;3.60;;;;;;;25.46;27.03;96681.09;4936143;29;20139;-75
2023/06/16 12:13:41;;;;;;;4.97;3.47;;;;;;;25.52;27.49;96679.19;4935372;29;20138;-75
2023/06/16 12:16:09;;;;;;;6.35;3.45;;;;;;;25.54;27.62;96677.03;4943261;29;20086;-75
2023/06/16 12:18:37;;;;;;;5.13;3.25;;;;;;;25.55;27.80;96676.75;4950563;29;20603;-75
2023/06/16 12:21:21;;;;;;;5.22;3.25;;;;;;;25.53;27.43;96675.44;4937033;29;20107;-76
2023/06/16 12:23:51;;;;;;;4.15;3.40;;;;;;;25.51;27.23;96672.25;4953977;29;20055;-76
2023/06/16 12:26:27;;;;;;;4.65;3.33;;;;;;;25.49;27.49;96676.00;4943868;29;20075;-76
2023/06/16 12:28:55;;;;;;;5.82;3.58;;;;;;;25.44;27.47;96662.66;4935170;29;20094;-76
2023/06/16 12:31:26;;;;;;;4.22;3.58;;;;;;;25.37;27.73;96666.72;4941475;29;20131;-76
2023/06/16 12:33:54;;;;;;;5.18;3.30;;;;;;;25.24;28.14;96662.78;4943205;29;20059;-76
2023/06/16 12:36:23;;;;;;;4.47;3.55;;;;;;;25.11;29.05;96671.34;4953582;29;20470;-75